sensor_id;sensor_type;location;lat;lon;timestamp;temperature;humidity
23560;DHT22;11958;50.836;4.438;2024-01-06T00:00:20;6.90;99.90
23560;DHT22;11958;50.836;4.438;2024-01-06T00:03:06;6.90;99.90
23560;DHT22;11958;50.836;4.438;2024-01-06T00:05:34;6.80;99.90
23560;DHT22;11958;50.836;4.438;2024-01-06T00:08:09;6.90;99.90
23560;DHT22;11958;50.836;4.438;2024-01-06T00:10:40;6.80;99.90
23560;DHT22;11958;50.836;4.438;2024-01-06T00:13:09;6.80;99.90
23560;DHT22;11958;50.836;4.438;2024-01-06T00:15:40;6.80;99.90
23560;DHT22;11958;50.836;4.438;2024-01-06T00:18:08;6.70;99.90
23560;DHT22;11958;50.836;4.438;2024-01-06T00:20:44;6.80;99.90
23560;DHT22;11958;50.836;4.438;2024-01-06T00:23:34;6.70;99.90
23560;DHT22;11958;50.836;4.438;2024-01-06T00:26:05;6.90;99.90
23560;DHT22;11958;50.836;4.438;2024-01-06T00:28:31;6.90;99.90
23560;DHT22;11958;50.836;4.438;2024-01-06T00:31:17;6.80;99.90
23560;DHT22;11958;50.836;4.438;2024-01-06T00:36:44;6.90;99.90
23560;DHT22;11958;50.836;4.438;2024-01-06T00:39:25;6.80;99.90
23560;DHT22;11958;50.836;4.438;2024-01-06T00:42:05;6.90;99.90
23560;DHT22;11958;50.836;4.438;2024-01-06T00:44:34;7.10;99.90
23560;DHT22;11958;50.836;4.438;2024-01-06T00:47:07;6.80;99.90
23560;DHT22;11958;50.836;4.438;2024-01-06T00:49:35;7.10;99.90
23560;DHT22;11958;50.836;4.438;2024-01-06T00:52:18;7.00;99.90
23560;DHT22;11958;50.836;4.438;2024-01-06T00:54:46;7.00;99.90
23560;DHT22;11958;50.836;4.438;2024-01-06T00:57:17;7.00;99.90
23560;DHT22;11958;50.836;4.438;2024-01-06T01:00:02;6.90;99.90
23560;DHT22;11958;50.836;4.438;2024-01-06T01:02:33;7.00;99.90
23560;DHT22;11958;50.836;4.438;2024-01-06T01:05:00;6.90;99.90
23560;DHT22;11958;50.836;4.438;2024-01-06T01:07:35;7.00;99.90
23560;DHT22;11958;50.836;4.438;2024-01-06T01:10:04;6.90;99.90
23560;DHT22;11958;50.836;4.438;2024-01-06T01:12:33;6.90;99.90
23560;DHT22;11958;50.836;4.438;2024-01-06T01:15:01;7.10;99.90
23560;DHT22;11958;50.836;4.438;2024-01-06T01:17:34;6.90;99.90
23560;DHT22;11958;50.836;4.438;2024-01-06T01:20:00;7.00;99.90
23560;DHT22;11958;50.836;4.438;2024-01-06T01:22:33;6.90;99.90
23560;DHT22;11958;50.836;4.438;2024-01-06T01:24:58;7.10;99.90
23560;DHT22;11958;50.836;4.438;2024-01-06T01:27:32;7.10;99.90
23560;DHT22;11958;50.836;4.438;2024-01-06T01:30:06;7.10;99.90
23560;DHT22;11958;50.836;4.438;2024-01-06T01:32:36;6.90;99.90
23560;DHT22;11958;50.836;4.438;2024-01-06T01:35:08;6.70;99.90
23560;DHT22;11958;50.836;4.438;2024-01-06T01:37:49;6.90;99.90
23560;DHT22;11958;50.836;4.438;2024-01-06T01:40:25;6.90;99.90
23560;DHT22;11958;50.836;4.438;2024-01-06T01:42:53;6.80;99.90
23560;DHT22;11958;50.836;4.438;2024-01-06T01:45:19;6.90;99.90
23560;DHT22;11958;50.836;4.438;2024-01-06T01:47:45;6.80;99.90
23560;DHT22;11958;50.836;4.438;2024-01-06T01:50:12;6.90;99.90
23560;DHT22;11958;50.836;4.438;2024-01-06T01:52:39;6.90;99.90
23560;DHT22;11958;50.836;4.438;2024-01-06T01:55:06;7.00;99.90
23560;DHT22;11958;50.836;4.438;2024-01-06T01:57:32;7.00;99.90
23560;DHT22;11958;50.836;4.438;2024-01-06T01:59:58;6.90;99.90
23560;DHT22;11958;50.836;4.438;2024-01-06T02:02:25;6.90;99.90
23560;DHT22;11958;50.836;4.438;2024-01-06T02:04:51;6.90;99.90
23560;DHT22;11958;50.836;4.438;2024-01-06T02:07:17;6.70;99.90
23560;DHT22;11958;50.836;4.438;2024-01-06T02:09:42;6.70;99.90
23560;DHT22;11958;50.836;4.438;2024-01-06T02:12:08;6.80;99.90
23560;DHT22;11958;50.836;4.438;2024-01-06T02:14:34;6.80;99.90
23560;DHT22;11958;50.836;4.438;2024-01-06T02:16:59;6.80;99.90
23560;DHT22;11958;50.836;4.438;2024-01-06T02:19:25;6.80;99.90
23560;DHT22;11958;50.836;4.438;2024-01-06T02:21:54;6.80;99.90
23560;DHT22;11958;50.836;4.438;2024-01-06T02:24:20;6.80;99.90
23560;DHT22;11958;50.836;4.438;2024-01-06T02:26:46;7.00;99.90
23560;DHT22;11958;50.836;4.438;2024-01-06T02:29:12;6.90;99.90
23560;DHT22;11958;50.836;4.438;2024-01-06T02:31:37;6.90;99.90
23560;DHT22;11958;50.836;4.438;2024-01-06T02:34:03;7.00;99.90
23560;DHT22;11958;50.836;4.438;2024-01-06T02:36:29;6.80;99.90
23560;DHT22;11958;50.836;4.438;2024-01-06T02:38:54;7.00;99.90
23560;DHT22;11958;50.836;4.438;2024-01-06T02:41:20;7.00;99.90
23560;DHT22;11958;50.836;4.438;2024-01-06T02:43:46;7.00;99.90
23560;DHT22;11958;50.836;4.438;2024-01-06T02:46:12;6.90;99.90
23560;DHT22;11958;50.836;4.438;2024-01-06T02:48:38;7.00;99.90
23560;DHT22;11958;50.836;4.438;2024-01-06T02:51:03;6.90;99.90
23560;DHT22;11958;50.836;4.438;2024-01-06T02:53:29;7.00;99.90
23560;DHT22;11958;50.836;4.438;2024-01-06T02:55:55;6.90;99.90
23560;DHT22;11958;50.836;4.438;2024-01-06T02:58:20;7.00;99.90
23560;DHT22;11958;50.836;4.438;2024-01-06T03:00:46;6.80;99.90
23560;DHT22;11958;50.836;4.438;2024-01-06T03:06:37;7.00;99.90
23560;DHT22;11958;50.836;4.438;2024-01-06T03:09:14;7.00;99.90
23560;DHT22;11958;50.836;4.438;2024-01-06T03:11:44;6.90;99.90
23560;DHT22;11958;50.836;4.438;2024-01-06T03:14:17;6.90;99.90
23560;DHT22;11958;50.836;4.438;2024-01-06T03:16:47;7.00;99.90
23560;DHT22;11958;50.836;4.438;2024-01-06T03:22:09;7.20;99.90
23560;DHT22;11958;50.836;4.438;2024-01-06T03:24:40;7.00;99.90
23560;DHT22;11958;50.836;4.438;2024-01-06T03:27:05;7.00;99.90
23560;DHT22;11958;50.836;4.438;2024-01-06T03:29:31;6.90;99.90
23560;DHT22;11958;50.836;4.438;2024-01-06T03:32:38;6.90;99.90
23560;DHT22;11958;50.836;4.438;2024-01-06T03:35:03;6.90;99.90
23560;DHT22;11958;50.836;4.438;2024-01-06T03:37:31;6.90;99.90
23560;DHT22;11958;50.836;4.438;2024-01-06T03:39:57;6.90;99.90
23560;DHT22;11958;50.836;4.438;2024-01-06T03:42:43;6.70;99.90
23560;DHT22;11958;50.836;4.438;2024-01-06T03:45:19;6.80;99.90
23560;DHT22;11958;50.836;4.438;2024-01-06T03:47:54;6.60;99.90
23560;DHT22;11958;50.836;4.438;2024-01-06T03:50:23;6.70;99.90
23560;DHT22;11958;50.836;4.438;2024-01-06T03:52:58;6.80;99.90
23560;DHT22;11958;50.836;4.438;2024-01-06T03:55:28;6.70;99.90
23560;DHT22;11958;50.836;4.438;2024-01-06T03:57:53;7.00;99.90
23560;DHT22;11958;50.836;4.438;2024-01-06T04:00:25;6.90;99.90
23560;DHT22;11958;50.836;4.438;2024-01-06T04:02:59;6.70;99.90
23560;DHT22;11958;50.836;4.438;2024-01-06T04:05:33;6.90;99.90
23560;DHT22;11958;50.836;4.438;2024-01-06T04:08:14;7.00;99.90
23560;DHT22;11958;50.836;4.438;2024-01-06T04:10:42;6.90;99.90
23560;DHT22;11958;50.836;4.438;2024-01-06T04:13:28;6.90;99.90
23560;DHT22;11958;50.836;4.438;2024-01-06T04:16:04;7.00;99.90
23560;DHT22;11958;50.836;4.438;2024-01-06T04:18:36;6.90;99.90
23560;DHT22;11958;50.836;4.438;2024-01-06T04:21:06;7.00;99.90
23560;DHT22;11958;50.836;4.438;2024-01-06T04:23:36;7.20;99.90
23560;DHT22;11958;50.836;4.438;2024-01-06T04:26:04;7.00;99.90
23560;DHT22;11958;50.836;4.438;2024-01-06T04:28:42;7.00;99.90
23560;DHT22;11958;50.836;4.438;2024-01-06T04:31:16;7.00;99.90
23560;DHT22;11958;50.836;4.438;2024-01-06T04:34:02;7.00;99.90
23560;DHT22;11958;50.836;4.438;2024-01-06T04:36:36;7.10;99.90
23560;DHT22;11958;50.836;4.438;2024-01-06T04:39:06;7.30;99.90
23560;DHT22;11958;50.836;4.438;2024-01-06T04:41:43;7.00;99.90
23560;DHT22;11958;50.836;4.438;2024-01-06T04:44:12;7.00;99.90
23560;DHT22;11958;50.836;4.438;2024-01-06T04:46:57;6.90;99.90
23560;DHT22;11958;50.836;4.438;2024-01-06T04:49:25;7.00;99.90
23560;DHT22;11958;50.836;4.438;2024-01-06T04:51:51;6.70;99.90
23560;DHT22;11958;50.836;4.438;2024-01-06T04:54:17;6.80;99.90
23560;DHT22;11958;50.836;4.438;2024-01-06T04:56:42;6.60;99.90
23560;DHT22;11958;50.836;4.438;2024-01-06T04:59:08;6.90;99.90
23560;DHT22;11958;50.836;4.438;2024-01-06T05:01:33;6.90;99.90
23560;DHT22;11958;50.836;4.438;2024-01-06T05:03:59;6.80;99.90
23560;DHT22;11958;50.836;4.438;2024-01-06T05:06:25;7.00;99.90
23560;DHT22;11958;50.836;4.438;2024-01-06T05:08:50;6.70;99.90
23560;DHT22;11958;50.836;4.438;2024-01-06T05:11:16;6.60;99.90
23560;DHT22;11958;50.836;4.438;2024-01-06T05:13:42;6.90;99.90
23560;DHT22;11958;50.836;4.438;2024-01-06T05:16:08;6.80;99.90
23560;DHT22;11958;50.836;4.438;2024-01-06T05:18:34;6.80;99.90
23560;DHT22;11958;50.836;4.438;2024-01-06T05:21:00;6.70;99.90
23560;DHT22;11958;50.836;4.438;2024-01-06T05:23:26;6.80;99.90
23560;DHT22;11958;50.836;4.438;2024-01-06T05:25:52;6.70;99.90
23560;DHT22;11958;50.836;4.438;2024-01-06T05:28:18;6.80;99.90
23560;DHT22;11958;50.836;4.438;2024-01-06T05:30:43;6.90;99.90
23560;DHT22;11958;50.836;4.438;2024-01-06T05:33:10;6.70;99.90
23560;DHT22;11958;50.836;4.438;2024-01-06T05:35:35;6.80;99.90
23560;DHT22;11958;50.836;4.438;2024-01-06T05:38:01;6.70;99.90
23560;DHT22;11958;50.836;4.438;2024-01-06T05:40:44;6.70;99.90
23560;DHT22;11958;50.836;4.438;2024-01-06T05:43:10;6.70;99.90
23560;DHT22;11958;50.836;4.438;2024-01-06T05:45:36;6.60;99.90
23560;DHT22;11958;50.836;4.438;2024-01-06T05:48:09;6.70;99.80
23560;DHT22;11958;50.836;4.438;2024-01-06T06:00:49;6.60;98.50
23560;DHT22;11958;50.836;4.438;2024-01-06T06:03:32;6.70;99.00
23560;DHT22;11958;50.836;4.438;2024-01-06T06:06:08;6.80;99.20
23560;DHT22;11958;50.836;4.438;2024-01-06T06:08:34;6.80;98.80
23560;DHT22;11958;50.836;4.438;2024-01-06T06:11:00;7.00;98.20
23560;DHT22;11958;50.836;4.438;2024-01-06T06:13:39;6.80;97.20
23560;DHT22;11958;50.836;4.438;2024-01-06T06:16:09;6.80;96.30
23560;DHT22;11958;50.836;4.438;2024-01-06T06:18:35;6.70;96.50
23560;DHT22;11958;50.836;4.438;2024-01-06T06:21:01;6.60;95.90
23560;DHT22;11958;50.836;4.438;2024-01-06T06:23:32;6.60;96.20
23560;DHT22;11958;50.836;4.438;2024-01-06T06:25:58;6.40;95.90
23560;DHT22;11958;50.836;4.438;2024-01-06T06:28:25;6.30;95.90
23560;DHT22;11958;50.836;4.438;2024-01-06T06:30:51;6.40;95.60
23560;DHT22;11958;50.836;4.438;2024-01-06T06:33:16;6.40;95.20
23560;DHT22;11958;50.836;4.438;2024-01-06T06:35:42;6.20;95.00
23560;DHT22;11958;50.836;4.438;2024-01-06T06:38:08;6.30;95.20
23560;DHT22;11958;50.836;4.438;2024-01-06T06:40:34;6.40;94.70
23560;DHT22;11958;50.836;4.438;2024-01-06T06:43:22;6.30;94.00
23560;DHT22;11958;50.836;4.438;2024-01-06T06:45:48;6.40;94.30
23560;DHT22;11958;50.836;4.438;2024-01-06T06:48:13;6.30;93.80
23560;DHT22;11958;50.836;4.438;2024-01-06T06:50:39;6.20;93.80
23560;DHT22;11958;50.836;4.438;2024-01-06T06:53:07;6.20;94.10
23560;DHT22;11958;50.836;4.438;2024-01-06T06:55:32;6.10;94.30
23560;DHT22;11958;50.836;4.438;2024-01-06T06:57:58;6.30;93.90
23560;DHT22;11958;50.836;4.438;2024-01-06T07:00:23;6.20;93.70
23560;DHT22;11958;50.836;4.438;2024-01-06T07:02:49;6.20;93.80
23560;DHT22;11958;50.836;4.438;2024-01-06T07:05:15;6.10;93.70
23560;DHT22;11958;50.836;4.438;2024-01-06T07:07:41;6.10;93.50
23560;DHT22;11958;50.836;4.438;2024-01-06T07:10:10;6.20;93.20
23560;DHT22;11958;50.836;4.438;2024-01-06T07:12:35;6.00;93.40
23560;DHT22;11958;50.836;4.438;2024-01-06T07:15:01;6.10;93.90
23560;DHT22;11958;50.836;4.438;2024-01-06T07:17:27;5.80;94.10
23560;DHT22;11958;50.836;4.438;2024-01-06T07:19:53;6.00;94.20
23560;DHT22;11958;50.836;4.438;2024-01-06T07:22:19;6.20;93.90
23560;DHT22;11958;50.836;4.438;2024-01-06T07:24:45;6.00;93.80
23560;DHT22;11958;50.836;4.438;2024-01-06T07:27:11;5.90;93.90
23560;DHT22;11958;50.836;4.438;2024-01-06T07:29:37;5.80;93.70
23560;DHT22;11958;50.836;4.438;2024-01-06T07:32:04;5.80;94.00
23560;DHT22;11958;50.836;4.438;2024-01-06T07:34:31;5.90;93.90
23560;DHT22;11958;50.836;4.438;2024-01-06T07:36:57;5.80;93.60
23560;DHT22;11958;50.836;4.438;2024-01-06T07:39:23;5.90;93.70
23560;DHT22;11958;50.836;4.438;2024-01-06T07:41:50;5.80;93.50
23560;DHT22;11958;50.836;4.438;2024-01-06T07:44:15;5.80;93.70
23560;DHT22;11958;50.836;4.438;2024-01-06T07:46:41;5.70;93.90
23560;DHT22;11958;50.836;4.438;2024-01-06T07:49:07;5.70;93.40
23560;DHT22;11958;50.836;4.438;2024-01-06T07:51:33;5.90;94.10
23560;DHT22;11958;50.836;4.438;2024-01-06T07:54:00;5.90;93.90
23560;DHT22;11958;50.836;4.438;2024-01-06T07:56:26;5.80;94.10
23560;DHT22;11958;50.836;4.438;2024-01-06T07:58:52;5.90;94.40
23560;DHT22;11958;50.836;4.438;2024-01-06T08:01:20;6.20;93.10
23560;DHT22;11958;50.836;4.438;2024-01-06T08:03:46;6.30;92.40
23560;DHT22;11958;50.836;4.438;2024-01-06T08:06:12;6.10;92.60
23560;DHT22;11958;50.836;4.438;2024-01-06T08:08:37;6.20;92.60
23560;DHT22;11958;50.836;4.438;2024-01-06T08:11:03;6.10;92.90
23560;DHT22;11958;50.836;4.438;2024-01-06T08:13:28;6.30;93.40
23560;DHT22;11958;50.836;4.438;2024-01-06T08:15:54;6.40;92.60
23560;DHT22;11958;50.836;4.438;2024-01-06T08:18:20;6.10;93.00
23560;DHT22;11958;50.836;4.438;2024-01-06T08:20:46;6.10;93.50
23560;DHT22;11958;50.836;4.438;2024-01-06T08:23:12;6.00;92.60
23560;DHT22;11958;50.836;4.438;2024-01-06T08:25:38;6.00;92.50
23560;DHT22;11958;50.836;4.438;2024-01-06T08:28:29;6.30;92.60
23560;DHT22;11958;50.836;4.438;2024-01-06T08:30:58;6.00;91.60
23560;DHT22;11958;50.836;4.438;2024-01-06T08:33:23;5.70;91.70
23560;DHT22;11958;50.836;4.438;2024-01-06T08:35:49;5.60;92.30
23560;DHT22;11958;50.836;4.438;2024-01-06T08:38:15;5.70;93.00
23560;DHT22;11958;50.836;4.438;2024-01-06T08:40:40;5.60;92.90
23560;DHT22;11958;50.836;4.438;2024-01-06T08:43:07;5.90;92.30
23560;DHT22;11958;50.836;4.438;2024-01-06T08:45:32;5.70;91.90
23560;DHT22;11958;50.836;4.438;2024-01-06T08:47:58;5.90;92.30
23560;DHT22;11958;50.836;4.438;2024-01-06T08:50:24;5.90;92.30
23560;DHT22;11958;50.836;4.438;2024-01-06T08:52:49;5.80;92.20
23560;DHT22;11958;50.836;4.438;2024-01-06T08:55:15;5.80;92.30
23560;DHT22;11958;50.836;4.438;2024-01-06T08:57:42;6.00;92.60
23560;DHT22;11958;50.836;4.438;2024-01-06T09:00:08;6.00;92.90
23560;DHT22;11958;50.836;4.438;2024-01-06T09:02:34;6.20;92.50
23560;DHT22;11958;50.836;4.438;2024-01-06T09:05:00;6.20;92.20
23560;DHT22;11958;50.836;4.438;2024-01-06T09:07:26;6.00;92.30
23560;DHT22;11958;50.836;4.438;2024-01-06T09:09:51;5.90;92.50
23560;DHT22;11958;50.836;4.438;2024-01-06T09:12:17;5.90;92.90
23560;DHT22;11958;50.836;4.438;2024-01-06T09:14:42;5.70;93.20
23560;DHT22;11958;50.836;4.438;2024-01-06T09:17:08;6.00;93.20
23560;DHT22;11958;50.836;4.438;2024-01-06T09:19:34;5.80;93.30
23560;DHT22;11958;50.836;4.438;2024-01-06T09:22:00;5.80;93.20
23560;DHT22;11958;50.836;4.438;2024-01-06T09:24:26;5.80;93.30
23560;DHT22;11958;50.836;4.438;2024-01-06T09:26:51;5.80;93.20
23560;DHT22;11958;50.836;4.438;2024-01-06T09:29:17;5.90;93.20
23560;DHT22;11958;50.836;4.438;2024-01-06T09:32:13;5.90;93.80
23560;DHT22;11958;50.836;4.438;2024-01-06T09:34:59;6.10;94.10
23560;DHT22;11958;50.836;4.438;2024-01-06T09:37:24;5.80;94.10
23560;DHT22;11958;50.836;4.438;2024-01-06T09:39:50;6.10;93.40
23560;DHT22;11958;50.836;4.438;2024-01-06T09:42:16;5.70;93.40
23560;DHT22;11958;50.836;4.438;2024-01-06T09:44:42;5.80;93.60
23560;DHT22;11958;50.836;4.438;2024-01-06T09:47:11;6.00;92.80
23560;DHT22;11958;50.836;4.438;2024-01-06T09:49:38;5.80;93.10
23560;DHT22;11958;50.836;4.438;2024-01-06T09:52:13;5.70;92.90
23560;DHT22;11958;50.836;4.438;2024-01-06T09:54:49;5.40;92.50
23560;DHT22;11958;50.836;4.438;2024-01-06T09:57:16;5.40;92.70
23560;DHT22;11958;50.836;4.438;2024-01-06T09:59:44;5.50;92.60
23560;DHT22;11958;50.836;4.438;2024-01-06T10:02:12;5.70;92.30
23560;DHT22;11958;50.836;4.438;2024-01-06T10:04:39;5.80;92.10
23560;DHT22;11958;50.836;4.438;2024-01-06T10:07:05;5.30;92.10
23560;DHT22;11958;50.836;4.438;2024-01-06T10:09:30;5.50;92.10
23560;DHT22;11958;50.836;4.438;2024-01-06T10:11:56;5.50;92.40
23560;DHT22;11958;50.836;4.438;2024-01-06T10:14:25;5.60;92.40
23560;DHT22;11958;50.836;4.438;2024-01-06T10:16:54;5.50;93.20
23560;DHT22;11958;50.836;4.438;2024-01-06T10:19:19;5.60;92.90
23560;DHT22;11958;50.836;4.438;2024-01-06T10:21:45;5.40;93.00
23560;DHT22;11958;50.836;4.438;2024-01-06T10:24:11;5.50;93.50
23560;DHT22;11958;50.836;4.438;2024-01-06T10:26:37;5.50;93.40
23560;DHT22;11958;50.836;4.438;2024-01-06T10:29:04;5.40;93.70
23560;DHT22;11958;50.836;4.438;2024-01-06T10:31:33;5.20;93.00
23560;DHT22;11958;50.836;4.438;2024-01-06T10:33:59;5.50;92.90
23560;DHT22;11958;50.836;4.438;2024-01-06T10:36:26;5.40;93.20
23560;DHT22;11958;50.836;4.438;2024-01-06T10:38:52;5.40;93.50
23560;DHT22;11958;50.836;4.438;2024-01-06T10:41:19;5.50;93.30
23560;DHT22;11958;50.836;4.438;2024-01-06T10:43:46;5.30;93.30
23560;DHT22;11958;50.836;4.438;2024-01-06T10:49:14;5.30;91.70
23560;DHT22;11958;50.836;4.438;2024-01-06T10:51:48;5.30;91.80
23560;DHT22;11958;50.836;4.438;2024-01-06T10:54:27;5.30;91.40
23560;DHT22;11958;50.836;4.438;2024-01-06T10:57:04;5.50;91.30
23560;DHT22;11958;50.836;4.438;2024-01-06T10:59:40;5.60;90.90
23560;DHT22;11958;50.836;4.438;2024-01-06T11:02:10;5.70;90.70
23560;DHT22;11958;50.836;4.438;2024-01-06T11:04:45;5.40;90.90
23560;DHT22;11958;50.836;4.438;2024-01-06T11:07:23;5.50;90.60
23560;DHT22;11958;50.836;4.438;2024-01-06T11:10:05;5.40;89.70
23560;DHT22;11958;50.836;4.438;2024-01-06T11:12:32;5.50;90.70
23560;DHT22;11958;50.836;4.438;2024-01-06T11:14:58;5.60;90.50
23560;DHT22;11958;50.836;4.438;2024-01-06T11:17:52;5.40;88.90
23560;DHT22;11958;50.836;4.438;2024-01-06T11:20:26;5.50;89.70
23560;DHT22;11958;50.836;4.438;2024-01-06T11:22:52;5.30;89.20
23560;DHT22;11958;50.836;4.438;2024-01-06T11:25:21;5.50;89.80
23560;DHT22;11958;50.836;4.438;2024-01-06T11:27:50;5.70;89.70
23560;DHT22;11958;50.836;4.438;2024-01-06T11:30:20;5.50;89.40
23560;DHT22;11958;50.836;4.438;2024-01-06T11:32:46;5.30;89.70
23560;DHT22;11958;50.836;4.438;2024-01-06T11:35:16;5.30;89.40
23560;DHT22;11958;50.836;4.438;2024-01-06T11:42:47;5.30;89.90
23560;DHT22;11958;50.836;4.438;2024-01-06T11:45:14;5.20;89.70
23560;DHT22;11958;50.836;4.438;2024-01-06T11:47:40;5.30;90.40
23560;DHT22;11958;50.836;4.438;2024-01-06T11:50:12;5.20;90.10
23560;DHT22;11958;50.836;4.438;2024-01-06T11:52:38;5.30;90.90
23560;DHT22;11958;50.836;4.438;2024-01-06T11:55:05;5.10;90.70
23560;DHT22;11958;50.836;4.438;2024-01-06T11:57:33;5.20;91.30
23560;DHT22;11958;50.836;4.438;2024-01-06T11:59:59;5.30;90.10
23560;DHT22;11958;50.836;4.438;2024-01-06T12:02:25;5.20;90.60
23560;DHT22;11958;50.836;4.438;2024-01-06T12:04:52;5.40;90.70
23560;DHT22;11958;50.836;4.438;2024-01-06T12:07:19;5.20;91.20
23560;DHT22;11958;50.836;4.438;2024-01-06T12:13:06;5.00;91.60
23560;DHT22;11958;50.836;4.438;2024-01-06T12:21:25;5.20;89.70
23560;DHT22;11958;50.836;4.438;2024-01-06T12:23:51;5.20;90.10
23560;DHT22;11958;50.836;4.438;2024-01-06T12:26:18;5.10;90.30
23560;DHT22;11958;50.836;4.438;2024-01-06T12:28:52;5.30;90.30
23560;DHT22;11958;50.836;4.438;2024-01-06T12:31:38;5.40;89.90
23560;DHT22;11958;50.836;4.438;2024-01-06T12:34:06;5.40;88.80
23560;DHT22;11958;50.836;4.438;2024-01-06T12:36:35;5.50;88.80
23560;DHT22;11958;50.836;4.438;2024-01-06T12:39:03;5.60;88.10
23560;DHT22;11958;50.836;4.438;2024-01-06T12:41:41;5.20;88.90
23560;DHT22;11958;50.836;4.438;2024-01-06T12:44:09;5.50;88.50
23560;DHT22;11958;50.836;4.438;2024-01-06T12:46:35;5.30;88.30
23560;DHT22;11958;50.836;4.438;2024-01-06T12:49:01;5.40;88.90
23560;DHT22;11958;50.836;4.438;2024-01-06T12:51:28;5.30;88.80
23560;DHT22;11958;50.836;4.438;2024-01-06T12:53:54;5.20;88.40
23560;DHT22;11958;50.836;4.438;2024-01-06T12:56:20;5.40;88.80
23560;DHT22;11958;50.836;4.438;2024-01-06T12:58:50;5.30;88.40
23560;DHT22;11958;50.836;4.438;2024-01-06T13:01:16;5.20;88.50
23560;DHT22;11958;50.836;4.438;2024-01-06T13:03:43;5.50;88.10
23560;DHT22;11958;50.836;4.438;2024-01-06T13:06:09;5.50;88.30
23560;DHT22;11958;50.836;4.438;2024-01-06T13:08:42;5.60;88.50
23560;DHT22;11958;50.836;4.438;2024-01-06T13:11:09;5.50;88.30
23560;DHT22;11958;50.836;4.438;2024-01-06T13:13:34;5.50;87.90
23560;DHT22;11958;50.836;4.438;2024-01-06T13:16:00;5.60;88.30
23560;DHT22;11958;50.836;4.438;2024-01-06T13:18:30;5.80;87.70
23560;DHT22;11958;50.836;4.438;2024-01-06T13:21:37;5.60;87.70
23560;DHT22;11958;50.836;4.438;2024-01-06T13:24:15;5.70;88.00
23560;DHT22;11958;50.836;4.438;2024-01-06T13:26:53;5.60;88.00
23560;DHT22;11958;50.836;4.438;2024-01-06T13:29:26;5.70;87.60
23560;DHT22;11958;50.836;4.438;2024-01-06T13:32:00;5.60;87.90
23560;DHT22;11958;50.836;4.438;2024-01-06T13:34:25;5.50;88.30
23560;DHT22;11958;50.836;4.438;2024-01-06T13:36:58;5.40;88.40
23560;DHT22;11958;50.836;4.438;2024-01-06T13:39:26;5.50;87.90
23560;DHT22;11958;50.836;4.438;2024-01-06T13:41:52;5.50;88.40
23560;DHT22;11958;50.836;4.438;2024-01-06T13:44:18;5.50;88.20
23560;DHT22;11958;50.836;4.438;2024-01-06T13:46:44;5.70;87.80
23560;DHT22;11958;50.836;4.438;2024-01-06T13:49:13;5.30;87.70
23560;DHT22;11958;50.836;4.438;2024-01-06T13:51:40;5.30;87.70
23560;DHT22;11958;50.836;4.438;2024-01-06T13:54:05;5.20;87.80
23560;DHT22;11958;50.836;4.438;2024-01-06T13:56:31;5.30;88.00
23560;DHT22;11958;50.836;4.438;2024-01-06T13:59:26;5.30;87.70
23560;DHT22;11958;50.836;4.438;2024-01-06T14:02:08;5.40;88.00
23560;DHT22;11958;50.836;4.438;2024-01-06T14:04:52;5.30;87.00
23560;DHT22;11958;50.836;4.438;2024-01-06T14:07:18;5.20;86.90
23560;DHT22;11958;50.836;4.438;2024-01-06T14:10:07;5.20;86.50
23560;DHT22;11958;50.836;4.438;2024-01-06T14:12:33;5.30;86.70
23560;DHT22;11958;50.836;4.438;2024-01-06T14:14:58;5.10;86.60
23560;DHT22;11958;50.836;4.438;2024-01-06T14:17:26;5.40;86.10
23560;DHT22;11958;50.836;4.438;2024-01-06T14:19:52;5.50;85.80
23560;DHT22;11958;50.836;4.438;2024-01-06T14:22:18;5.20;86.20
23560;DHT22;11958;50.836;4.438;2024-01-06T14:24:44;5.30;86.00
23560;DHT22;11958;50.836;4.438;2024-01-06T14:27:09;5.10;85.50
23560;DHT22;11958;50.836;4.438;2024-01-06T14:29:35;5.30;85.80
23560;DHT22;11958;50.836;4.438;2024-01-06T14:32:01;5.30;85.10
23560;DHT22;11958;50.836;4.438;2024-01-06T14:34:27;5.10;85.90
23560;DHT22;11958;50.836;4.438;2024-01-06T14:36:53;5.40;85.90
23560;DHT22;11958;50.836;4.438;2024-01-06T14:39:18;5.30;86.20
23560;DHT22;11958;50.836;4.438;2024-01-06T14:41:47;5.40;85.40
23560;DHT22;11958;50.836;4.438;2024-01-06T14:44:13;5.30;86.10
23560;DHT22;11958;50.836;4.438;2024-01-06T14:46:38;5.40;85.90
23560;DHT22;11958;50.836;4.438;2024-01-06T14:49:04;5.40;85.90
23560;DHT22;11958;50.836;4.438;2024-01-06T14:51:30;5.40;85.40
23560;DHT22;11958;50.836;4.438;2024-01-06T14:53:55;5.40;86.00
23560;DHT22;11958;50.836;4.438;2024-01-06T14:56:22;5.50;85.90
23560;DHT22;11958;50.836;4.438;2024-01-06T14:58:48;5.50;85.30
23560;DHT22;11958;50.836;4.438;2024-01-06T15:01:34;5.40;85.60
23560;DHT22;11958;50.836;4.438;2024-01-06T15:04:00;5.30;85.40
23560;DHT22;11958;50.836;4.438;2024-01-06T15:06:26;5.30;85.00
23560;DHT22;11958;50.836;4.438;2024-01-06T15:08:51;5.20;85.20
23560;DHT22;11958;50.836;4.438;2024-01-06T15:11:17;5.30;85.00
23560;DHT22;11958;50.836;4.438;2024-01-06T15:13:42;5.40;85.30
23560;DHT22;11958;50.836;4.438;2024-01-06T15:16:08;5.20;85.70
23560;DHT22;11958;50.836;4.438;2024-01-06T15:18:34;5.20;85.30
23560;DHT22;11958;50.836;4.438;2024-01-06T15:21:01;5.20;85.10
23560;DHT22;11958;50.836;4.438;2024-01-06T15:23:27;5.10;85.60
23560;DHT22;11958;50.836;4.438;2024-01-06T15:25:52;5.20;86.00
23560;DHT22;11958;50.836;4.438;2024-01-06T15:28:18;5.10;86.00
23560;DHT22;11958;50.836;4.438;2024-01-06T15:30:45;5.00;85.80
23560;DHT22;11958;50.836;4.438;2024-01-06T15:33:10;5.00;85.40
23560;DHT22;11958;50.836;4.438;2024-01-06T15:35:36;5.10;85.70
23560;DHT22;11958;50.836;4.438;2024-01-06T15:38:01;5.20;85.60
23560;DHT22;11958;50.836;4.438;2024-01-06T15:40:27;5.20;85.80
23560;DHT22;11958;50.836;4.438;2024-01-06T15:42:53;5.10;84.80
23560;DHT22;11958;50.836;4.438;2024-01-06T15:45:18;5.30;85.20
23560;DHT22;11958;50.836;4.438;2024-01-06T15:47:44;5.30;84.30
23560;DHT22;11958;50.836;4.438;2024-01-06T15:50:10;5.30;84.50
23560;DHT22;11958;50.836;4.438;2024-01-06T15:52:36;5.20;84.30
23560;DHT22;11958;50.836;4.438;2024-01-06T15:55:02;5.30;84.00
23560;DHT22;11958;50.836;4.438;2024-01-06T15:57:28;5.20;84.60
23560;DHT22;11958;50.836;4.438;2024-01-06T15:59:56;5.20;83.80
23560;DHT22;11958;50.836;4.438;2024-01-06T16:02:22;5.40;83.40
23560;DHT22;11958;50.836;4.438;2024-01-06T16:04:47;5.00;83.00
23560;DHT22;11958;50.836;4.438;2024-01-06T16:07:13;5.00;83.00
23560;DHT22;11958;50.836;4.438;2024-01-06T16:09:39;5.20;82.60
23560;DHT22;11958;50.836;4.438;2024-01-06T16:12:05;5.20;83.00
23560;DHT22;11958;50.836;4.438;2024-01-06T16:14:34;5.10;82.00
23560;DHT22;11958;50.836;4.438;2024-01-06T16:17:00;5.20;81.90
23560;DHT22;11958;50.836;4.438;2024-01-06T16:19:27;5.10;82.20
23560;DHT22;11958;50.836;4.438;2024-01-06T16:21:53;5.30;82.50
23560;DHT22;11958;50.836;4.438;2024-01-06T16:24:49;5.20;81.70
23560;DHT22;11958;50.836;4.438;2024-01-06T16:27:33;5.40;81.50
23560;DHT22;11958;50.836;4.438;2024-01-06T16:30:09;5.20;81.20
23560;DHT22;11958;50.836;4.438;2024-01-06T16:32:35;5.30;81.10